Time;durP1;ratioP1;P1;durP2;ratioP2;P2;SDS_P1;SDS_P2;PMS_P1;PMS_P2;Temp;Humidity;BMP_temperature;BMP_pressure;BME280_temperature;BME280_humidity;BME280_pressure;Samples;Min_cycle;Max_cycle;Signal;HPM_P1;HPM_P2
2022/05/19 00:01:27;;;;;;;6.80;3.60;;;14.90;73.50;;;;;;5054502;28;20813;-63
2022/05/19 00:03:54;;;;;;;12.23;4.27;;;14.90;73.50;;;;;;5053168;28;20855;-63
2022/05/19 00:06:21;;;;;;;6.07;3.77;;;14.90;73.40;;;;;;5054175;28;20544;-63
2022/05/19 00:08:48;;;;;;;5.67;3.97;;;14.90;73.30;;;;;;5053312;28;20468;-65
2022/05/19 00:11:21;;;;;;;8.90;5.10;;;14.90;73.60;;;;;;5052637;28;20440;-63
2022/05/19 00:13:48;;;;;;;8.63;5.70;;;14.80;73.80;;;;;;5053831;28;20468;-63
2022/05/19 00:16:15;;;;;;;6.80;5.33;;;14.70;75.00;;;;;;5052933;28;20476;-63
2022/05/19 00:18:42;;;;;;;6.63;4.33;;;14.70;75.60;;;;;;5053935;28;20871;-63
2022/05/19 00:21:09;;;;;;;6.53;4.40;;;14.60;75.80;;;;;;5052767;28;20445;-64
2022/05/19 00:23:36;;;;;;;4.70;4.10;;;14.60;76.00;;;;;;5053493;28;20520;-63
2022/05/19 00:26:03;;;;;;;4.63;3.83;;;14.60;76.00;;;;;;5052723;28;20517;-63
2022/05/19 00:28:31;;;;;;;9.67;3.93;;;14.50;76.90;;;;;;5053661;28;20480;-64
2022/05/19 00:30:58;;;;;;;6.57;4.00;;;14.50;77.50;;;;;;5052468;28;20444;-64
2022/05/19 00:33:26;;;;;;;4.73;4.17;;;14.40;77.60;;;;;;5053050;28;20511;-63
2022/05/19 00:35:53;;;;;;;4.63;4.23;;;14.40;77.80;;;;;;5052605;28;20858;-64
2022/05/19 00:38:20;;;;;;;5.00;3.93;;;14.50;77.80;;;;;;5053432;28;20531;-64
2022/05/19 00:40:49;;;;;;;4.77;4.20;;;14.50;77.10;;;;;;5052549;28;20441;-63
2022/05/19 00:43:26;;;;;;;5.43;4.20;;;14.40;76.30;;;;;;5052586;28;20479;-63
2022/05/19 00:45:59;;;;;;;5.47;3.63;;;14.40;76.60;;;;;;5052399;28;20512;-63
2022/05/19 00:48:31;;;;;;;5.87;4.40;;;14.30;77.50;;;;;;5052931;28;20539;-63
2022/05/19 00:51:02;;;;;;;6.70;4.00;;;14.30;78.20;;;;;;5052527;28;20441;-64
2022/05/19 00:53:35;;;;;;;7.23;3.40;;;14.30;78.30;;;;;;5051824;28;20469;-64
2022/05/19 00:56:08;;;;;;;6.00;3.43;;;14.20;77.50;;;;;;5052071;28;20437;-63
2022/05/19 00:58:41;;;;;;;8.97;3.90;;;14.20;77.80;;;;;;5052757;28;20441;-63
2022/05/19 01:01:09;;;;;;;6.00;4.13;;;14.10;78.30;;;;;;5051912;28;20516;-64
2022/05/19 01:03:42;;;;;;;6.23;4.50;;;14.10;78.80;;;;;;5052780;28;20440;-64
2022/05/19 01:06:14;;;;;;;5.93;4.83;;;14.10;79.30;;;;;;5052038;28;20527;-63
2022/05/19 01:08:45;;;;;;;9.07;4.80;;;14.00;80.00;;;;;;5052733;28;20531;-63
2022/05/19 01:11:15;;;;;;;5.63;4.93;;;13.90;80.00;;;;;;5052021;28;20518;-63
2022/05/19 01:13:42;;;;;;;5.57;4.37;;;13.90;80.10;;;;;;5052499;28;20448;-65
2022/05/19 01:16:11;;;;;;;8.90;4.13;;;13.90;80.10;;;;;;5052028;28;20842;-64
2022/05/19 01:18:39;;;;;;;9.83;6.03;;;13.90;80.30;;;;;;5052386;28;20523;-64
2022/05/19 01:21:08;;;;;;;12.70;6.27;;;13.90;80.70;;;;;;5051601;28;20527;-64
2022/05/19 01:23:46;;;;;;;10.50;6.30;;;13.90;80.30;;;;;;5052189;28;20479;-64
2022/05/19 01:26:22;;;;;;;12.57;6.73;;;13.90;79.80;;;;;;5051714;28;20471;-63
2022/05/19 01:28:51;;;;;;;10.70;5.90;;;13.80;80.40;;;;;;5052270;28;20515;-66
2022/05/19 01:31:39;;;;;;;7.07;4.93;;;13.70;81.00;;;;;;5051831;28;20471;-64
2022/05/19 01:34:08;;;;;;;6.40;5.17;;;13.70;81.40;;;;;;5047799;28;20520;-64
2022/05/19 01:36:35;;;;;;;8.40;4.93;;;13.80;81.50;;;;;;5051648;28;20440;-64
2022/05/19 01:39:05;;;;;;;8.87;5.03;;;13.80;81.10;;;;;;5052114;28;20519;-64
2022/05/19 01:41:44;;;;;;;6.40;4.70;;;13.80;80.90;;;;;;5051632;28;20519;-64
2022/05/19 01:44:29;;;;;;;9.37;5.40;;;13.90;81.00;;;;;;5051631;28;20445;-66
2022/05/19 01:47:15;;;;;;;9.30;6.20;;;13.90;80.30;;;;;;5051539;28;20468;-65
2022/05/19 01:49:49;;;;;;;11.30;6.27;;;13.80;80.20;;;;;;5050142;28;20946;-64
2022/05/19 01:52:20;;;;;;;7.37;5.17;;;13.80;81.10;;;;;;5052244;28;20468;-64
2022/05/19 01:54:56;;;;;;;5.83;3.90;;;13.70;81.10;;;;;;5051722;28;20832;-64
2022/05/19 01:57:29;;;;;;;5.00;4.03;;;13.70;81.10;;;;;;5055956;28;20468;-65
2022/05/19 02:00:06;;;;;;;4.43;3.90;;;13.80;81.00;;;;;;5055700;28;20464;-64
2022/05/19 02:02:39;;;;;;;5.60;4.80;;;13.80;81.00;;;;;;5055956;28;20472;-64
2022/05/19 02:05:14;;;;;;;6.30;4.53;;;13.80;80.50;;;;;;5055356;28;20551;-64
2022/05/19 02:07:44;;;;;;;5.50;4.13;;;13.70;80.90;;;;;;5056008;28;20476;-64
2022/05/19 02:10:17;;;;;;;4.90;4.13;;;13.60;81.00;;;;;;5055161;28;20842;-64
2022/05/19 02:12:44;;;;;;;6.10;4.47;;;13.70;81.30;;;;;;5055335;28;20524;-64
2022/05/19 02:15:17;;;;;;;5.67;4.60;;;13.70;81.20;;;;;;5055281;28;20523;-64
2022/05/19 02:17:46;;;;;;;4.43;3.93;;;13.70;81.10;;;;;;5055197;28;20432;-64
2022/05/19 02:20:16;;;;;;;7.40;4.73;;;13.60;81.40;;;;;;5055694;28;20467;-64
2022/05/19 02:22:45;;;;;;;6.80;5.50;;;13.60;81.10;;;;;;5055264;28;20424;-65
2022/05/19 02:25:15;;;;;;;8.83;5.00;;;13.60;80.80;;;;;;5035404;28;20560;-64
2022/05/19 02:27:48;;;;;;;7.07;5.13;;;13.60;80.90;;;;;;5035621;28;20500;-64
2022/05/19 02:30:20;;;;;;;5.97;4.33;;;13.50;80.90;;;;;;5053113;28;21013;-64
2022/05/19 02:32:48;;;;;;;7.93;5.97;;;13.40;81.90;;;;;;5055395;28;20437;-63
2022/05/19 02:35:15;;;;;;;5.20;4.43;;;13.40;81.80;;;;;;5055451;28;20853;-64
2022/05/19 02:37:43;;;;;;;6.40;4.87;;;13.40;81.40;;;;;;5054753;28;20441;-64
2022/05/19 02:40:12;;;;;;;5.03;4.27;;;13.40;80.60;;;;;;5055458;28;20528;-63
2022/05/19 02:42:39;;;;;;;7.57;5.17;;;13.40;81.50;;;;;;5054802;28;20527;-64
2022/05/19 02:45:07;;;;;;;5.17;4.47;;;13.20;83.00;;;;;;5055232;28;20575;-64
2022/05/19 02:47:36;;;;;;;7.90;4.67;;;13.20;83.10;;;;;;5054533;28;20639;-64
2022/05/19 02:50:04;;;;;;;6.93;5.33;;;13.30;83.20;;;;;;5055362;28;20447;-64
2022/05/19 02:52:31;;;;;;;5.93;5.20;;;13.30;83.30;;;;;;5054151;28;20465;-64
2022/05/19 02:54:58;;;;;;;8.27;4.40;;;13.30;83.00;;;;;;5054356;28;20483;-64
2022/05/19 02:57:25;;;;;;;8.63;4.50;;;13.20;82.40;;;;;;5055012;28;20477;-64
2022/05/19 02:59:52;;;;;;;7.60;4.93;;;13.20;83.10;;;;;;5054676;28;20525;-64
2022/05/19 03:02:19;;;;;;;8.13;5.20;;;13.20;83.20;;;;;;5054827;28;20536;-64
2022/05/19 03:04:47;;;;;;;6.10;4.70;;;13.10;83.70;;;;;;5054404;28;20869;-63
2022/05/19 03:07:14;;;;;;;6.07;4.40;;;13.10;83.50;;;;;;5054357;28;20451;-64
2022/05/19 03:09:42;;;;;;;5.53;4.77;;;13.10;82.90;;;;;;5054055;28;20469;-64
2022/05/19 03:12:10;;;;;;;7.30;5.17;;;13.10;83.00;;;;;;5054603;28;20444;-63
2022/05/19 03:14:37;;;;;;;8.10;6.03;;;13.00;82.60;;;;;;5053809;28;20940;-64
2022/05/19 03:17:07;;;;;;;8.00;5.10;;;13.00;83.30;;;;;;5054615;28;20527;-64
2022/05/19 03:19:34;;;;;;;6.43;4.90;;;13.00;83.70;;;;;;5053893;28;20939;-64
2022/05/19 03:22:03;;;;;;;7.53;5.57;;;13.00;84.30;;;;;;5054589;28;20520;-64
2022/05/19 03:24:30;;;;;;;5.53;5.00;;;13.00;84.90;;;;;;5053825;28;20524;-63
2022/05/19 03:26:57;;;;;;;7.28;5.63;;;13.00;85.10;;;;;;5054522;28;20484;-64
2022/05/19 03:29:25;;;;;;;6.07;5.17;;;13.00;85.20;;;;;;5054230;28;20281;-67
2022/05/19 03:31:52;;;;;;;7.03;4.70;;;12.90;84.90;;;;;;5054720;28;20441;-64
2022/05/19 03:34:20;;;;;;;6.30;5.40;;;12.90;85.30;;;;;;5054189;28;20524;-64
2022/05/19 03:36:49;;;;;;;5.70;4.88;;;13.00;85.20;;;;;;5053884;28;20448;-64
2022/05/19 03:39:18;;;;;;;9.23;5.40;;;12.90;84.30;;;;;;5054458;28;20637;-64
2022/05/19 03:41:45;;;;;;;6.23;5.23;;;12.90;84.70;;;;;;5052913;28;20927;-64
2022/05/19 03:44:12;;;;;;;5.30;4.80;;;12.90;84.10;;;;;;5053475;28;20834;-64
2022/05/19 03:46:39;;;;;;;6.00;5.00;;;12.80;84.20;;;;;;5053915;28;21085;-63
2022/05/19 03:49:06;;;;;;;6.50;5.17;;;12.70;84.60;;;;;;5052880;28;20535;-64
2022/05/19 03:51:36;;;;;;;7.50;5.40;;;12.70;85.00;;;;;;5054013;28;20468;-63
2022/05/19 03:54:03;;;;;;;8.33;5.90;;;12.70;85.60;;;;;;5053085;28;20915;-64
2022/05/19 03:56:32;;;;;;;6.93;5.30;;;12.70;85.60;;;;;;5053966;28;20443;-64
2022/05/19 03:58:59;;;;;;;6.65;5.70;;;12.70;85.10;;;;;;5052899;28;20280;-64
2022/05/19 04:01:26;;;;;;;5.83;5.23;;;12.60;85.10;;;;;;5051896;28;20278;-64
2022/05/19 04:03:54;;;;;;;6.43;5.72;;;12.60;85.80;;;;;;5053677;28;20587;-65
2022/05/19 04:06:21;;;;;;;8.90;6.22;;;12.60;86.10;;;;;;5054102;28;20276;-64
2022/05/19 04:08:49;;;;;;;7.43;5.80;;;12.60;86.10;;;;;;5052705;28;20228;-64
2022/05/19 04:11:16;;;;;;;8.30;6.47;;;12.60;86.90;;;;;;5054250;28;20230;-64
2022/05/19 04:13:45;;;;;;;7.68;5.47;;;12.70;87.10;;;;;;5053266;28;20285;-64
2022/05/19 04:16:12;;;;;;;13.43;6.47;;;12.80;87.60;;;;;;5053979;28;20281;-64
2022/05/19 04:18:39;;;;;;;13.70;6.00;;;12.80;87.70;;;;;;5052301;28;20472;-63
2022/05/19 04:21:06;;;;;;;11.17;5.90;;;12.80;87.40;;;;;;5053537;28;20524;-64
2022/05/19 04:23:33;;;;;;;6.28;5.40;;;12.80;87.60;;;;;;5053917;28;20432;-64
2022/05/19 04:26:01;;;;;;;12.32;8.88;;;12.80;88.60;;;;;;5053357;28;20237;-64
2022/05/19 04:28:28;;;;;;;11.95;8.10;;;12.80;88.60;;;;;;5053957;28;20289;-64
2022/05/19 04:30:57;;;;;;;9.48;6.97;;;12.80;89.00;;;;;;5053138;28;20193;-64
2022/05/19 04:33:24;;;;;;;8.35;6.93;;;12.80;89.60;;;;;;5053775;28;20190;-65
2022/05/19 04:35:51;;;;;;;7.55;5.80;;;12.80;90.10;;;;;;5053135;28;20273;-64
2022/05/19 04:38:18;;;;;;;8.40;6.10;;;12.80;90.20;;;;;;5053598;28;20230;-64
2022/05/19 04:40:48;;;;;;;10.27;7.10;;;12.80;90.10;;;;;;5053172;28;20193;-64
2022/05/19 04:43:19;;;;;;;8.23;6.70;;;12.90;90.40;;;;;;5053943;28;20878;-64
2022/05/19 04:45:47;;;;;;;7.07;5.68;;;12.90;90.50;;;;;;5053020;28;20571;-64
2022/05/19 04:48:16;;;;;;;10.87;6.60;;;13.00;90.90;;;;;;5053759;28;20226;-64
2022/05/19 04:50:43;;;;;;;6.93;5.83;;;13.10;90.90;;;;;;5052716;28;20915;-64
2022/05/19 04:53:10;;;;;;;6.38;5.00;;;13.10;91.00;;;;;;5052227;28;20524;-64
2022/05/19 04:55:37;;;;;;;6.30;5.10;;;13.10;91.30;;;;;;5051218;28;20282;-64
2022/05/19 04:58:05;;;;;;;5.90;5.13;;;13.20;91.40;;;;;;5053234;28;20532;-64
2022/05/19 05:00:32;;;;;;;8.57;5.50;;;13.30;91.40;;;;;;5052719;28;20202;-64
2022/05/19 05:02:59;;;;;;;9.30;5.43;;;13.30;91.60;;;;;;5053083;28;20440;-64
2022/05/19 05:05:27;;;;;;;6.30;5.70;;;13.40;92.10;;;;;;5052558;28;20588;-64
2022/05/19 05:07:54;;;;;;;7.47;6.03;;;13.50;92.00;;;;;;5049652;28;20512;-64
2022/05/19 05:10:21;;;;;;;7.53;6.30;;;13.70;91.90;;;;;;5050290;28;20524;-65
2022/05/19 05:12:48;;;;;;;12.47;5.80;;;13.80;91.90;;;;;;5051964;28;20465;-64
2022/05/19 05:15:15;;;;;;;6.10;5.50;;;13.80;91.90;;;;;;5050538;28;20508;-65
2022/05/19 05:17:42;;;;;;;8.97;6.03;;;13.90;91.90;;;;;;5050362;28;20437;-65
2022/05/19 05:20:12;;;;;;;7.53;6.33;;;14.00;91.80;;;;;;5051656;28;20488;-64
2022/05/19 05:22:41;;;;;;;5.87;5.10;;;14.00;91.90;;;;;;5048941;28;20826;-64
2022/05/19 05:25:11;;;;;;;5.87;5.27;;;14.20;92.30;;;;;;5049509;28;20437;-64
2022/05/19 05:27:38;;;;;;;6.80;6.10;;;14.30;91.90;;;;;;5050863;28;20502;-64
2022/05/19 05:30:07;;;;;;;6.60;5.70;;;14.30;91.30;;;;;;5051394;28;20549;-64
2022/05/19 05:32:35;;;;;;;6.63;5.97;;;14.40;91.80;;;;;;5048566;28;20524;-65
2022/05/19 05:35:02;;;;;;;8.27;5.53;;;14.60;91.70;;;;;;5051238;28;20862;-64
2022/05/19 05:37:29;;;;;;;6.50;5.60;;;14.70;91.20;;;;;;5046289;28;20545;-64
2022/05/19 05:39:58;;;;;;;5.67;5.03;;;14.90;91.10;;;;;;5048458;28;20443;-64
2022/05/19 05:42:24;;;;;;;7.07;5.33;;;15.00;90.50;;;;;;5049056;28;20529;-64
2022/05/19 05:44:52;;;;;;;8.50;5.80;;;15.20;90.30;;;;;;5048541;28;20523;-64
2022/05/19 05:47:19;;;;;;;7.80;5.00;;;15.30;88.60;;;;;;5049158;28;20486;-65
2022/05/19 05:49:46;;;;;;;8.53;6.00;;;15.40;87.90;;;;;;5050694;28;20910;-65
2022/05/19 05:52:13;;;;;;;7.43;5.73;;;15.50;89.20;;;;;;5049821;28;20516;-64
2022/05/19 05:54:40;;;;;;;8.33;5.47;;;15.60;89.30;;;;;;5051264;28;20531;-64
2022/05/19 05:57:08;;;;;;;10.67;5.23;;;15.70;89.00;;;;;;5050239;28;21003;-64
2022/05/19 05:59:36;;;;;;;6.07;5.47;;;15.80;88.90;;;;;;5050503;28;20484;-64
2022/05/19 06:02:04;;;;;;;9.77;5.33;;;16.00;88.60;;;;;;5045230;28;20433;-64
2022/05/19 06:04:31;;;;;;;6.97;5.50;;;16.10;88.30;;;;;;5051154;28;20539;-66
2022/05/19 06:06:58;;;;;;;6.87;5.53;;;16.20;87.20;;;;;;5049669;28;20515;-65
2022/05/19 06:09:30;;;;;;;6.23;5.30;;;16.40;86.40;;;;;;5050592;28;20834;-64
2022/05/19 06:11:57;;;;;;;10.17;5.50;;;16.50;86.70;;;;;;5048893;28;20445;-64
2022/05/19 06:14:26;;;;;;;6.40;5.23;;;16.60;86.20;;;;;;5050758;28;20479;-64
2022/05/19 06:16:53;;;;;;;5.87;4.97;;;16.70;85.80;;;;;;5049972;28;20528;-66
2022/05/19 06:19:21;;;;;;;8.30;5.77;;;16.70;84.80;;;;;;5043598;28;20508;-64
2022/05/19 06:21:49;;;;;;;7.60;6.00;;;16.80;85.20;;;;;;5049871;28;20479;-64
2022/05/19 06:24:16;;;;;;;9.20;6.17;;;16.90;85.20;;;;;;5050462;28;20456;-64
2022/05/19 06:26:43;;;;;;;6.50;5.00;;;17.10;86.20;;;;;;5048593;28;20552;-65
2022/05/19 06:29:11;;;;;;;10.00;6.00;;;17.20;85.10;;;;;;5049681;28;20473;-64
2022/05/19 06:31:39;;;;;;;6.10;5.50;;;17.40;85.80;;;;;;5049392;28;20495;-64
2022/05/19 06:34:06;;;;;;;7.13;6.53;;;17.60;86.00;;;;;;5049884;28;20524;-64
2022/05/19 06:36:33;;;;;;;5.80;4.80;;;17.70;85.30;;;;;;5049336;28;20512;-64
2022/05/19 06:39:00;;;;;;;10.10;5.37;;;17.90;83.20;;;;;;5049669;28;20524;-64
2022/05/19 06:44:11;;;;;;;5.53;5.03;;;18.10;83.00;;;;;;5052526;28;20791;-64
2022/05/19 06:46:39;;;;;;;5.70;4.70;;;18.30;82.40;;;;;;5054416;28;20476;-65
2022/05/19 06:49:07;;;;;;;9.17;5.47;;;18.40;82.10;;;;;;5053234;28;20464;-65
2022/05/19 06:51:34;;;;;;;5.87;5.27;;;18.60;81.20;;;;;;5048415;28;20448;-65
2022/05/19 06:54:01;;;;;;;6.77;5.30;;;18.80;82.00;;;;;;5053921;28;20448;-65
2022/05/19 06:56:28;;;;;;;6.80;5.33;;;18.90;81.50;;;;;;5050804;28;20527;-66
2022/05/19 06:58:56;;;;;;;8.40;6.13;;;19.10;81.30;;;;;;5052962;28;20429;-64
2022/05/19 07:01:23;;;;;;;7.33;5.30;;;19.20;80.20;;;;;;5052905;28;20429;-69
2022/05/19 07:03:52;;;;;;;6.53;5.40;;;19.30;78.60;;;;;;5052418;28;20463;-64
2022/05/19 07:06:19;;;;;;;6.70;5.03;;;19.50;76.90;;;;;;5053398;28;20893;-64
2022/05/19 07:08:47;;;;;;;5.83;4.10;;;19.60;77.00;;;;;;5049464;28;20448;-65
2022/05/19 07:11:25;;;;;;;6.63;4.07;;;19.80;77.50;;;;;;5041705;28;20445;-64
2022/05/19 07:13:54;;;;;;;5.00;4.50;;;19.90;76.80;;;;;;5048923;28;20468;-65
2022/05/19 07:16:21;;;;;;;6.90;4.43;;;20.10;75.90;;;;;;5047814;28;20437;-65
2022/05/19 07:18:48;;;;;;;7.07;4.90;;;20.20;76.10;;;;;;5051107;28;21011;-66
2022/05/19 07:21:18;;;;;;;7.67;4.50;;;20.40;76.90;;;;;;5053506;28;20437;-65
2022/05/19 07:23:47;;;;;;;5.73;4.43;;;20.60;77.60;;;;;;5049763;28;20429;-64
2022/05/19 07:26:14;;;;;;;5.60;4.57;;;20.70;76.80;;;;;;5052338;28;20439;-64
2022/05/19 07:28:41;;;;;;;10.60;5.17;;;20.90;75.40;;;;;;5053089;28;20472;-65
2022/05/19 07:31:08;;;;;;;7.37;4.67;;;21.00;76.20;;;;;;5051899;28;20513;-65
2022/05/19 07:33:37;;;;;;;5.63;4.40;;;21.20;75.00;;;;;;5052900;28;20468;-64
2022/05/19 07:36:08;;;;;;;5.83;4.10;;;21.30;74.10;;;;;;5050534;28;21009;-65
2022/05/19 07:38:37;;;;;;;7.07;4.70;;;21.40;73.50;;;;;;5052666;28;20472;-66
2022/05/19 07:41:04;;;;;;;5.77;4.07;;;21.60;75.20;;;;;;5048187;28;20432;-64
2022/05/19 07:43:37;;;;;;;6.30;4.23;;;21.90;75.90;;;;;;5050676;28;20457;-65
2022/05/19 07:46:05;;;;;;;5.00;3.93;;;22.00;75.00;;;;;;5052966;28;20514;-65
2022/05/19 07:48:32;;;;;;;6.90;4.10;;;22.20;72.00;;;;;;5047849;28;20840;-64
2022/05/19 07:50:59;;;;;;;6.00;3.80;;;22.30;70.90;;;;;;5052806;28;20451;-65
2022/05/19 07:53:26;;;;;;;10.90;4.03;;;22.40;67.90;;;;;;5051453;28;20544;-65
2022/05/19 07:55:55;;;;;;;6.30;4.43;;;22.50;68.70;;;;;;5052313;28;20775;-67
2022/05/19 07:58:22;;;;;;;4.50;3.63;;;22.70;71.00;;;;;;5051842;28;20531;-66
2022/05/19 08:00:51;;;;;;;6.57;4.43;;;22.90;71.10;;;;;;5052587;28;21524;-65
2022/05/19 08:03:18;;;;;;;6.53;4.20;;;23.00;70.80;;;;;;5050953;28;20528;-65
2022/05/19 08:05:45;;;;;;;5.83;3.53;;;23.20;71.00;;;;;;5051932;28;20437;-65
2022/05/19 08:08:12;;;;;;;7.90;3.90;;;23.40;70.90;;;;;;5051732;28;20568;-65
2022/05/19 08:10:39;;;;;;;3.97;3.53;;;23.50;68.10;;;;;;5051735;28;20999;-67
2022/05/19 08:15:52;;;;;;;4.20;3.80;;;23.80;67.90;;;;;;5049845;28;20428;-66
2022/05/19 08:18:21;;;;;;;6.40;3.60;;;23.80;65.80;;;;;;5051926;28;20483;-67
2022/05/19 08:20:49;;;;;;;3.80;2.77;;;24.00;65.50;;;;;;5047556;28;21022;-66
2022/05/19 08:23:22;;;;;;;5.90;3.47;;;24.10;64.00;;;;;;5052380;28;20520;-65
2022/05/19 08:25:49;;;;;;;5.10;4.00;;;24.20;64.30;;;;;;5052151;28;20830;-65
2022/05/19 08:28:19;;;;;;;6.97;3.50;;;24.40;62.50;;;;;;5051951;28;20604;-66
2022/05/19 08:30:47;;;;;;;4.30;3.07;;;24.50;63.10;;;;;;5052194;28;20803;-65
2022/05/19 08:33:15;;;;;;;5.10;3.33;;;24.70;61.60;;;;;;5052067;28;20444;-65
2022/05/19 08:35:42;;;;;;;6.53;3.47;;;24.90;61.20;;;;;;5051144;28;20527;-65
2022/05/19 08:38:09;;;;;;;4.40;3.53;;;25.00;59.90;;;;;;5051808;28;20441;-65
2022/05/19 08:40:41;;;;;;;5.87;3.43;;;25.20;60.70;;;;;;5051836;28;20530;-65
2022/05/19 08:43:10;;;;;;;4.50;3.00;;;25.30;59.00;;;;;;5051598;28;20522;-65
2022/05/19 08:45:41;;;;;;;4.80;3.20;;;25.40;55.50;;;;;;5050933;28;20533;-65
2022/05/19 08:48:12;;;;;;;5.97;2.97;;;25.50;55.80;;;;;;5051413;28;20486;-65
2022/05/19 08:50:46;;;;;;;6.43;3.03;;;25.60;57.50;;;;;;5050665;28;20533;-65
2022/05/19 08:53:13;;;;;;;3.87;3.10;;;25.80;56.60;;;;;;5051258;28;20444;-65
2022/05/19 08:55:48;;;;;;;5.33;3.00;;;25.90;54.00;;;;;;5051620;28;20531;-65
2022/05/19 08:58:27;;;;;;;4.70;2.90;;;26.10;54.20;;;;;;5047592;28;20436;-65
2022/05/19 09:01:02;;;;;;;5.50;3.13;;;26.30;54.40;;;;;;5051404;28;20447;-66
2022/05/19 09:03:33;;;;;;;5.30;3.40;;;26.50;54.40;;;;;;5051425;28;20440;-65
2022/05/19 09:06:14;;;;;;;4.80;3.10;;;26.60;54.10;;;;;;5050901;28;20433;-65
2022/05/19 09:08:55;;;;;;;3.70;2.80;;;26.80;55.00;;;;;;5047816;28;20583;-65
2022/05/19 09:11:27;;;;;;;5.80;3.37;;;27.00;54.20;;;;;;5050145;28;20526;-65
2022/05/19 09:13:58;;;;;;;5.17;2.90;;;27.30;55.20;;;;;;5051437;28;20430;-65
2022/05/19 09:16:29;;;;;;;4.53;3.33;;;27.40;53.10;;;;;;5051236;28;20511;-65
2022/05/19 09:19:03;;;;;;;7.30;3.50;;;27.60;54.30;;;;;;5051565;28;20512;-66
2022/05/19 09:21:30;;;;;;;4.30;3.30;;;27.80;53.70;;;;;;5050193;28;20521;-65
2022/05/19 09:23:57;;;;;;;4.43;3.40;;;28.00;53.00;;;;;;5050837;28;20437;-67
2022/05/19 09:26:46;;;;;;;3.70;3.30;;;28.20;51.40;;;;;;5050966;28;20480;-65
2022/05/19 09:29:15;;;;;;;8.10;2.87;;;28.40;50.30;;;;;;5050557;28;20948;-65
2022/05/19 09:31:48;;;;;;;4.70;3.57;;;28.60;50.10;;;;;;5050306;28;20436;-65
2022/05/19 09:34:15;;;;;;;11.57;3.70;;;28.70;47.70;;;;;;5051253;28;20446;-65
2022/05/19 09:37:04;;;;;;;7.53;3.23;;;28.80;47.60;;;;;;5050568;28;20515;-66
2022/05/19 09:39:35;;;;;;;15.03;4.93;;;28.90;48.00;;;;;;5050916;28;20753;-67
2022/05/19 09:42:08;;;;;;;5.53;3.20;;;29.10;46.20;;;;;;5051082;28;20425;-65
2022/05/19 09:44:39;;;;;;;6.40;3.17;;;29.20;45.40;;;;;;5051176;28;20529;-65
2022/05/19 09:47:20;;;;;;;7.30;2.90;;;29.30;46.00;;;;;;5050559;28;20463;-66
2022/05/19 09:49:55;;;;;;;7.37;3.00;;;29.40;44.40;;;;;;5047745;28;20915;-67
2022/05/19 09:52:26;;;;;;;4.30;2.83;;;29.40;42.80;;;;;;5047052;28;20525;-66
2022/05/19 09:54:57;;;;;;;8.17;3.77;;;29.40;42.70;;;;;;5049837;28;20456;-66
2022/05/19 09:57:28;;;;;;;5.03;3.50;;;29.50;42.50;;;;;;5048176;28;20459;-66
2022/05/19 09:59:59;;;;;;;6.73;3.60;;;29.60;42.00;;;;;;5047111;28;20439;-65
2022/05/19 10:02:33;;;;;;;5.63;3.23;;;29.70;42.30;;;;;;5049191;28;20452;-65
2022/05/19 10:05:02;;;;;;;4.73;3.20;;;29.90;44.00;;;;;;5049152;28;20529;-65
2022/05/19 10:07:36;;;;;;;12.70;4.20;;;30.10;43.20;;;;;;5048341;28;20576;-66
2022/05/19 10:10:17;;;;;;;5.00;3.43;;;30.20;44.00;;;;;;5047939;28;20440;-65
2022/05/19 10:12:47;;;;;;;7.93;3.17;;;30.30;41.70;;;;;;5048386;28;20444;-65
2022/05/19 10:15:17;;;;;;;10.53;3.50;;;30.40;42.40;;;;;;5047618;28;20433;-65
2022/05/19 10:18:00;;;;;;;3.50;3.10;;;30.40;40.10;;;;;;5051379;28;20451;-65
2022/05/19 10:20:30;;;;;;;5.30;3.83;;;30.40;39.30;;;;;;5052095;28;20444;-65
2022/05/19 10:23:14;;;;;;;9.87;3.23;;;30.50;38.40;;;;;;5052506;28;20445;-65
2022/05/19 10:26:15;;;;;;;7.30;3.03;;;30.70;39.90;;;;;;5052932;28;20440;-67
2022/05/19 10:32:02;;;;;;;6.33;2.70;;;30.80;38.50;;;;;;5051281;28;20435;-66
2022/05/19 10:34:44;;;;;;;7.90;3.20;;;30.90;39.60;;;;;;5051193;28;20440;-65
2022/05/19 10:37:21;;;;;;;6.47;3.50;;;31.00;39.90;;;;;;5050089;28;20979;-67
2022/05/19 10:40:17;;;;;;;5.83;2.57;;;31.00;39.60;;;;;;5051301;28;20464;-65
2022/05/19 10:43:00;;;;;;;5.67;3.50;;;31.10;39.20;;;;;;5052500;28;20530;-65
2022/05/19 10:45:29;;;;;;;5.47;3.20;;;31.20;39.40;;;;;;5052801;28;20436;-65
2022/05/19 10:48:18;;;;;;;5.90;3.43;;;31.30;39.40;;;;;;5052453;28;20496;-65
2022/05/19 10:50:53;;;;;;;5.20;4.30;;;31.40;37.60;;;;;;5048615;28;20440;-65
2022/05/19 10:53:52;;;;;;;5.53;3.40;;;31.50;38.70;;;;;;5052182;28;20487;-65
2022/05/19 10:56:39;;;;;;;7.00;2.97;;;31.60;38.70;;;;;;5050623;28;20461;-66
2022/05/19 10:59:26;;;;;;;7.77;3.30;;;31.60;36.70;;;;;;5052618;28;20520;-65
2022/05/19 11:02:03;;;;;;;8.50;2.63;;;31.70;34.30;;;;;;5051092;28;20437;-65
2022/05/19 11:05:09;;;;;;;3.30;2.30;;;31.70;35.10;;;;;;5052965;28;20527;-64
2022/05/19 11:07:49;;;;;;;4.33;2.80;;;31.80;34.90;;;;;;5052185;28;20490;-65
2022/05/19 11:10:25;;;;;;;5.77;2.97;;;31.80;34.30;;;;;;5052293;28;20456;-65
2022/05/19 11:13:01;;;;;;;5.10;3.37;;;31.70;33.80;;;;;;5052714;28;21001;-66
2022/05/19 11:15:39;;;;;;;4.40;3.30;;;31.70;33.50;;;;;;5049791;28;21041;-66
2022/05/19 11:18:13;;;;;;;6.50;2.87;;;31.80;33.30;;;;;;5052492;28;20436;-65
2022/05/19 11:20:59;;;;;;;3.70;3.23;;;31.80;34.30;;;;;;5051789;28;20437;-65
2022/05/19 11:23:35;;;;;;;7.23;2.73;;;31.90;34.00;;;;;;5052096;28;20441;-65
2022/05/19 11:29:19;;;;;;;4.20;3.70;;;32.10;35.00;;;;;;5045279;28;20581;-65
2022/05/19 11:31:59;;;;;;;6.30;3.43;;;32.30;36.50;;;;;;5053655;28;20537;-65
2022/05/19 11:34:31;;;;;;;17.10;2.90;;;32.40;32.10;;;;;;5051522;28;20473;-65
2022/05/19 11:37:04;;;;;;;3.40;2.37;;;32.30;31.60;;;;;;5052460;28;20453;-66
2022/05/19 11:39:37;;;;;;;5.93;3.17;;;32.20;32.10;;;;;;5053479;28;20472;-65
2022/05/19 11:42:22;;;;;;;6.60;3.20;;;32.20;32.20;;;;;;5052419;28;20515;-65
2022/05/19 11:44:49;;;;;;;4.00;2.87;;;32.10;33.60;;;;;;5053092;28;20445;-66
2022/05/19 11:55:12;;;;;;;5.87;3.30;;;32.10;34.00;;;;;;5049634;28;20493;-65
2022/05/19 11:55:51;;;;;;;4.93;3.63;;;31.90;30.80;;;;;;5051846;28;20436;-66
2022/05/19 11:58:21;;;;;;;4.90;3.00;;;31.90;32.00;;;;;;5051657;28;20447;-70
2022/05/19 12:00:57;;;;;;;4.53;3.27;;;32.00;33.80;;;;;;5051806;28;20444;-66
2022/05/19 12:03:30;;;;;;;4.20;2.93;;;32.10;33.00;;;;;;5048171;28;20444;-64
2022/05/19 12:06:00;;;;;;;6.00;2.83;;;32.10;32.10;;;;;;5052417;28;20775;-65
2022/05/19 12:08:34;;;;;;;5.47;3.37;;;32.10;32.00;;;;;;5051439;28;20472;-67
2022/05/19 12:11:14;;;;;;;3.73;2.70;;;32.00;31.10;;;;;;5049004;28;20433;-65
2022/05/19 12:13:47;;;;;;;3.87;2.27;;;32.00;30.00;;;;;;5050630;28;20464;-65
2022/05/19 12:16:17;;;;;;;9.03;2.83;;;31.90;29.40;;;;;;5052635;28;20467;-65
2022/05/19 12:19:01;;;;;;;8.23;2.67;;;31.80;30.50;;;;;;5051839;28;20519;-64
2022/05/19 12:21:43;;;;;;;4.63;2.50;;;31.80;31.90;;;;;;5051999;28;20451;-65
2022/05/19 12:24:13;;;;;;;4.60;3.60;;;31.70;30.30;;;;;;5051634;28;20441;-65
2022/05/19 12:26:57;;;;;;;4.10;3.00;;;31.80;30.70;;;;;;5051812;28;20424;-65
2022/05/19 12:29:34;;;;;;;3.43;2.40;;;31.70;29.80;;;;;;5048689;28;20491;-64
2022/05/19 12:32:09;;;;;;;5.13;2.97;;;31.60;29.80;;;;;;5051554;28;20429;-65
2022/05/19 12:34:45;;;;;;;5.30;2.93;;;31.50;30.30;;;;;;5052307;28;20420;-64
2022/05/19 12:37:35;;;;;;;6.67;2.93;;;31.50;31.20;;;;;;5051603;28;20444;-63
2022/05/19 12:40:30;;;;;;;8.83;3.53;;;31.50;30.90;;;;;;5051624;28;20420;-62
2022/05/19 12:43:17;;;;;;;7.30;3.10;;;31.50;30.30;;;;;;5015443;28;20535;-62
2022/05/19 12:45:48;;;;;;;5.07;3.23;;;31.40;29.50;;;;;;5050693;28;20520;-62
2022/05/19 12:48:26;;;;;;;4.50;2.77;;;31.40;30.30;;;;;;5045862;28;20998;-63
2022/05/19 12:51:12;;;;;;;6.70;2.63;;;31.30;30.20;;;;;;5051283;28;20445;-62
2022/05/19 12:53:44;;;;;;;5.13;2.70;;;31.30;29.80;;;;;;5047849;28;20445;-64
2022/05/19 12:56:31;;;;;;;8.33;3.50;;;31.30;30.90;;;;;;5051931;28;20441;-62
2022/05/19 12:59:05;;;;;;;3.77;3.20;;;31.40;31.90;;;;;;5047858;28;20861;-65
2022/05/19 13:01:36;;;;;;;8.70;3.00;;;31.50;31.90;;;;;;5050312;28;20441;-65
2022/05/19 13:04:12;;;;;;;5.63;3.67;;;31.50;32.10;;;;;;5047543;28;20495;-66
2022/05/19 13:06:44;;;;;;;4.90;2.70;;;31.60;31.20;;;;;;5048025;28;20523;-65
2022/05/19 13:09:11;;;;;;;3.67;2.73;;;31.50;30.20;;;;;;5047086;28;20485;-65
2022/05/19 13:11:44;;;;;;;5.60;2.70;;;31.50;29.90;;;;;;5047221;28;20443;-65
2022/05/19 13:14:17;;;;;;;3.93;2.40;;;31.50;30.50;;;;;;5051117;28;20520;-65
2022/05/19 13:16:51;;;;;;;4.50;2.70;;;31.50;30.40;;;;;;5050179;28;20482;-66
2022/05/19 13:19:22;;;;;;;5.97;2.53;;;31.50;30.60;;;;;;5050056;28;20433;-66
2022/05/19 13:21:56;;;;;;;8.07;3.00;;;31.50;30.80;;;;;;5047752;28;20472;-64
2022/05/19 13:24:25;;;;;;;6.67;2.40;;;31.50;29.50;;;;;;5048961;28;20988;-65